createdAt,value
2018-12-29T00:00:26.293Z,35.15
2018-12-29T00:02:55.148Z,32.98
2018-12-29T00:05:24.112Z,30.88
2018-12-29T00:07:53.200Z,31.20
2018-12-29T00:10:22.064Z,30.10
2018-12-29T00:12:50.962Z,29.10
2018-12-29T00:15:19.868Z,29.75
2018-12-29T00:17:48.794Z,28.47
2018-12-29T00:20:17.605Z,30.80
2018-12-29T00:22:46.499Z,32.63
2018-12-29T00:25:15.376Z,27.62
2018-12-29T00:27:44.216Z,28.52
2018-12-29T00:30:13.480Z,27.00
2018-12-29T00:32:42.265Z,32.25
2018-12-29T00:35:11.035Z,31.85
2018-12-29T00:37:39.936Z,29.00
2018-12-29T00:40:08.916Z,24.00
2018-12-29T00:42:37.724Z,29.77
2018-12-29T00:45:06.645Z,26.73
2018-12-29T00:47:35.607Z,31.27
2018-12-29T00:50:04.960Z,25.77
2018-12-29T00:52:33.964Z,27.02
2018-12-29T00:55:02.740Z,27.80
2018-12-29T00:57:31.644Z,27.32
2018-12-29T01:00:00.548Z,27.98
2018-12-29T01:02:29.532Z,27.40
2018-12-29T01:04:58.424Z,31.82
2018-12-29T01:07:27.405Z,31.50
2018-12-29T01:09:56.211Z,34.85
2018-12-29T01:12:25.001Z,33.35
2018-12-29T01:14:53.828Z,36.03
2018-12-29T01:17:22.716Z,35.45
2018-12-29T01:19:51.825Z,34.80
2018-12-29T01:22:20.800Z,30.35
2018-12-29T01:24:49.676Z,35.00
2018-12-29T01:27:18.456Z,30.85
2018-12-29T01:29:47.266Z,31.48
2018-12-29T01:32:16.091Z,32.48
2018-12-29T01:34:44.867Z,30.52
2018-12-29T01:37:13.704Z,33.75
2018-12-29T01:39:42.674Z,38.00
2018-12-29T01:42:11.475Z,35.52
2018-12-29T01:44:40.376Z,32.95
2018-12-29T01:47:09.285Z,32.58
2018-12-29T01:49:38.209Z,31.75
2018-12-29T01:52:07.107Z,31.75
2018-12-29T01:54:35.918Z,31.95
2018-12-29T01:57:04.784Z,31.23
2018-12-29T01:59:33.716Z,27.85
2018-12-29T02:02:02.619Z,30.90
2018-12-29T02:04:31.632Z,28.65
2018-12-29T02:07:00.400Z,37.73
2018-12-29T02:09:29.308Z,29.48
2018-12-29T02:11:58.116Z,30.82
2018-12-29T02:14:26.981Z,29.40
2018-12-29T02:16:55.860Z,29.35
2018-12-29T02:19:24.840Z,28.15
2018-12-29T02:21:53.732Z,28.85
2018-12-29T02:24:22.620Z,27.98
2018-12-29T02:26:51.472Z,30.32
2018-12-29T02:29:20.340Z,31.57
2018-12-29T02:31:49.150Z,28.83
2018-12-29T02:34:18.070Z,31.07
2018-12-29T02:36:46.888Z,27.60
2018-12-29T02:39:15.843Z,25.95
2018-12-29T02:41:44.826Z,28.02
2018-12-29T02:44:13.724Z,31.95
2018-12-29T02:46:42.567Z,25.52
2018-12-29T02:49:11.330Z,27.37
2018-12-29T02:51:40.196Z,28.77
2018-12-29T02:54:09.092Z,30.90
2018-12-29T02:56:37.901Z,30.62
2018-12-29T02:59:06.832Z,29.90
2018-12-29T03:01:35.776Z,28.40
2018-12-29T03:04:04.660Z,28.42
2018-12-29T03:06:33.768Z,28.73
2018-12-29T03:09:02.744Z,28.23
2018-12-29T03:11:31.805Z,25.40
2018-12-29T03:14:00.624Z,27.98
2018-12-29T03:16:29.440Z,29.30
2018-12-29T03:18:58.237Z,31.50
2018-12-29T03:21:27.042Z,26.30
2018-12-29T03:23:55.877Z,26.55
2018-12-29T03:26:24.863Z,29.23
2018-12-29T03:28:53.884Z,27.60
2018-12-29T03:31:22.793Z,24.50
2018-12-29T03:33:51.636Z,28.85
2018-12-29T03:36:20.429Z,27.45
2018-12-29T03:38:49.344Z,28.30
2018-12-29T03:41:18.237Z,25.35
2018-12-29T03:43:47.110Z,27.05
2018-12-29T03:46:15.977Z,25.70
2018-12-29T03:48:44.778Z,27.48
2018-12-29T03:51:13.640Z,25.27
2018-12-29T03:53:42.532Z,29.25
2018-12-29T03:56:11.528Z,24.57
2018-12-29T03:58:40.331Z,26.90
2018-12-29T04:01:09.320Z,24.72
2018-12-29T04:03:38.124Z,25.40
2018-12-29T04:06:06.924Z,25.72
2018-12-29T04:08:35.887Z,26.00
2018-12-29T04:11:04.928Z,27.48
2018-12-29T04:13:34.377Z,28.05
2018-12-29T04:16:03.265Z,24.82
2018-12-29T04:18:32.056Z,25.37
2018-12-29T04:21:00.848Z,24.18
2018-12-29T04:23:29.670Z,24.10
2018-12-29T04:25:58.436Z,26.40
2018-12-29T04:28:27.236Z,26.45
2018-12-29T04:30:56.203Z,26.00
2018-12-29T04:33:25.008Z,27.82
2018-12-29T04:35:53.884Z,24.45
2018-12-29T04:38:22.660Z,24.35
2018-12-29T04:40:51.451Z,25.43
2018-12-29T04:43:20.268Z,26.77
2018-12-29T04:45:49.321Z,25.90
2018-12-29T04:48:18.217Z,25.08
2018-12-29T04:50:47.384Z,25.02
2018-12-29T04:53:16.288Z,23.22
2018-12-29T04:55:45.180Z,24.37
2018-12-29T04:58:14.122Z,26.10
2018-12-29T05:00:42.968Z,25.40
2018-12-29T05:03:11.844Z,25.15
2018-12-29T05:05:40.656Z,25.88
2018-12-29T05:08:09.520Z,24.70
2018-12-29T05:10:38.336Z,28.57
2018-12-29T05:13:07.298Z,26.17
2018-12-29T05:15:36.204Z,27.42
2018-12-29T05:18:05.011Z,30.43
2018-12-29T05:20:33.821Z,28.10
2018-12-29T05:23:02.940Z,29.70
2018-12-29T05:25:31.817Z,26.42
2018-12-29T05:28:00.753Z,26.05
2018-12-29T05:30:29.680Z,26.50
2018-12-29T05:32:58.468Z,29.10
2018-12-29T05:35:27.265Z,30.17
2018-12-29T05:37:56.041Z,24.92
2018-12-29T05:40:25.250Z,28.10
2018-12-29T05:42:55.964Z,29.20
2018-12-29T05:45:25.032Z,28.60
2018-12-29T05:47:53.844Z,29.18
2018-12-29T05:50:22.640Z,29.57
2018-12-29T05:52:51.508Z,26.42
2018-12-29T05:55:20.376Z,27.82
2018-12-29T05:57:49.164Z,28.98
2018-12-29T06:00:18.056Z,32.15
2018-12-29T06:02:46.852Z,30.82
2018-12-29T06:05:15.708Z,30.48
2018-12-29T06:07:44.521Z,29.50
2018-12-29T06:10:13.424Z,30.25
2018-12-29T06:12:42.304Z,31.07
2018-12-29T06:15:11.272Z,30.60
2018-12-29T06:17:40.172Z,28.02
2018-12-29T06:20:09.052Z,34.00
2018-12-29T06:22:37.900Z,32.15
2018-12-29T06:25:06.800Z,29.27
2018-12-29T06:27:35.621Z,31.25
2018-12-29T06:30:04.796Z,31.68
2018-12-29T06:32:33.704Z,32.25
2018-12-29T06:35:02.484Z,30.30
2018-12-29T06:37:31.352Z,34.23
2018-12-29T06:40:00.357Z,33.73
2018-12-29T06:42:29.150Z,32.63
2018-12-29T06:44:57.953Z,32.33
2018-12-29T06:47:26.851Z,32.35
2018-12-29T06:49:55.648Z,32.28
2018-12-29T06:52:24.528Z,34.08
2018-12-29T06:54:53.324Z,31.65
2018-12-29T06:57:22.246Z,34.27
2018-12-29T06:59:51.060Z,35.58
2018-12-29T07:02:19.880Z,35.25
2018-12-29T07:04:48.660Z,33.00
2018-12-29T07:07:17.533Z,35.78
2018-12-29T07:09:46.363Z,33.63
2018-12-29T07:12:15.168Z,34.38
2018-12-29T07:14:44.039Z,31.23
2018-12-29T07:17:12.840Z,34.45
2018-12-29T07:19:41.612Z,31.30
2018-12-29T07:22:10.457Z,31.87
2018-12-29T07:24:39.380Z,31.48
2018-12-29T07:27:08.185Z,32.50
2018-12-29T07:29:38.415Z,37.17
2018-12-29T07:32:07.348Z,32.70
2018-12-29T07:34:36.114Z,34.38
2018-12-29T07:37:05.188Z,33.23
2018-12-29T07:39:34.071Z,33.73
2018-12-29T07:42:02.953Z,33.75
2018-12-29T07:44:31.785Z,30.92
2018-12-29T07:47:00.644Z,30.25
2018-12-29T07:49:29.540Z,36.63
2018-12-29T07:51:58.389Z,30.60
2018-12-29T07:54:27.476Z,30.35
2018-12-29T07:56:56.288Z,32.53
2018-12-29T07:59:25.107Z,29.82
2018-12-29T08:01:54.220Z,31.42
2018-12-29T08:04:23.004Z,33.38
2018-12-29T08:06:51.824Z,34.00
2018-12-29T08:09:20.568Z,30.68
2018-12-29T08:11:49.392Z,32.00
2018-12-29T08:14:18.205Z,33.05
2018-12-29T08:16:47.073Z,33.40
2018-12-29T08:19:15.888Z,32.45
2018-12-29T08:21:44.733Z,33.15
2018-12-29T08:24:13.529Z,30.45
2018-12-29T08:26:42.327Z,32.05
2018-12-29T08:29:11.688Z,30.08
2018-12-29T08:31:40.472Z,31.77
2018-12-29T08:34:09.260Z,32.63
2018-12-29T08:36:38.128Z,33.08
2018-12-29T08:39:07.346Z,30.35
2018-12-29T08:41:36.452Z,32.90
2018-12-29T08:44:05.412Z,31.80
2018-12-29T08:46:34.348Z,34.40
2018-12-29T08:49:03.264Z,31.85
2018-12-29T08:51:32.172Z,28.50
2018-12-29T08:54:01.015Z,34.05
2018-12-29T08:56:29.813Z,30.30
2018-12-29T08:58:58.671Z,35.70
2018-12-29T09:01:27.592Z,33.70
2018-12-29T09:03:56.437Z,34.38
2018-12-29T09:06:25.400Z,33.23
2018-12-29T09:08:54.296Z,33.60
2018-12-29T09:11:23.189Z,33.60
2018-12-29T09:13:51.997Z,34.83
2018-12-29T09:16:20.813Z,31.00
2018-12-29T09:18:50.010Z,33.25
2018-12-29T09:21:18.931Z,34.48
2018-12-29T09:23:47.760Z,34.95
2018-12-29T09:26:16.566Z,30.62
2018-12-29T09:28:45.428Z,29.52
2018-12-29T09:31:14.233Z,32.23
2018-12-29T09:33:43.109Z,32.85
2018-12-29T09:36:11.998Z,31.93
2018-12-29T09:38:40.808Z,32.85
2018-12-29T09:41:09.800Z,33.45
2018-12-29T09:43:38.620Z,32.60
2018-12-29T09:46:07.684Z,33.98
2018-12-29T09:48:36.499Z,28.85
2018-12-29T09:51:05.333Z,29.15
2018-12-29T09:53:34.328Z,31.93
2018-12-29T09:56:03.224Z,28.02
2018-12-29T09:58:32.140Z,33.38
2018-12-29T10:01:01.118Z,29.27
2018-12-29T10:03:30.133Z,28.92
2018-12-29T10:05:59.027Z,35.45
2018-12-29T10:08:27.937Z,36.58
2018-12-29T10:10:56.777Z,33.10
2018-12-29T10:13:25.572Z,34.53
2018-12-29T10:15:54.352Z,31.73
2018-12-29T10:18:23.149Z,30.65
2018-12-29T10:20:51.921Z,38.28
2018-12-29T10:23:20.754Z,27.45
2018-12-29T10:25:49.560Z,28.32
2018-12-29T10:28:18.477Z,28.67
2018-12-29T10:30:47.269Z,28.07
2018-12-29T10:33:16.061Z,28.42
2018-12-29T10:35:45.313Z,26.30
2018-12-29T10:38:14.093Z,31.50
2018-12-29T10:40:43.027Z,27.40
2018-12-29T10:43:11.840Z,30.37
2018-12-29T10:45:40.651Z,28.67
2018-12-29T10:48:09.552Z,29.92
2018-12-29T10:50:38.356Z,30.80
2018-12-29T10:53:07.236Z,32.63
2018-12-29T10:55:36.044Z,31.12
2018-12-29T10:58:04.872Z,30.27
2018-12-29T11:00:35.179Z,29.82
2018-12-29T11:03:04.456Z,29.52
2018-12-29T11:05:33.233Z,28.52
2018-12-29T11:08:02.032Z,32.93
2018-12-29T11:10:30.845Z,26.68
2018-12-29T11:12:59.836Z,30.05
2018-12-29T11:15:28.740Z,28.15
2018-12-29T11:17:57.644Z,26.85
2018-12-29T11:20:26.575Z,30.75
2018-12-29T11:22:55.405Z,32.03
2018-12-29T11:25:24.542Z,29.32
2018-12-29T11:27:53.292Z,31.80
2018-12-29T11:30:22.196Z,32.58
2018-12-29T11:32:51.041Z,31.00
2018-12-29T11:35:19.934Z,31.17
2018-12-29T11:37:48.716Z,27.95
2018-12-29T11:40:17.589Z,31.25
2018-12-29T11:42:46.376Z,34.33
2018-12-29T11:45:15.208Z,33.65
2018-12-29T11:47:49.824Z,29.60
2018-12-29T11:50:14.636Z,31.17
2018-12-29T11:52:43.780Z,29.07
2018-12-29T11:55:12.556Z,31.35
2018-12-29T11:57:41.342Z,28.17
2018-12-29T12:00:10.352Z,33.83
2018-12-29T12:02:39.144Z,33.83
2018-12-29T12:05:08.136Z,29.30
2018-12-29T12:07:37.052Z,30.02
2018-12-29T12:10:06.008Z,30.52
2018-12-29T12:12:35.280Z,28.00
2018-12-29T12:15:04.245Z,30.82
2018-12-29T12:17:33.049Z,28.57
2018-12-29T12:20:01.908Z,30.23
2018-12-29T12:22:30.824Z,30.52
2018-12-29T12:24:59.965Z,31.02
2018-12-29T12:27:28.768Z,35.30
2018-12-29T12:29:58.004Z,31.65
2018-12-29T12:32:26.804Z,34.78
2018-12-29T12:34:55.869Z,32.40
2018-12-29T12:37:24.632Z,31.05
2018-12-29T12:39:53.708Z,36.17
2018-12-29T12:42:22.540Z,27.80
2018-12-29T12:44:51.341Z,33.73
2018-12-29T12:47:20.108Z,31.90
2018-12-29T12:49:49.072Z,31.02
2018-12-29T12:52:17.928Z,31.15
2018-12-29T12:54:46.928Z,29.95
2018-12-29T12:57:16.041Z,28.35
2018-12-29T12:59:45.212Z,34.03
2018-12-29T13:02:14.114Z,30.10
2018-12-29T13:04:43.196Z,29.02
2018-12-29T13:07:11.976Z,31.42
2018-12-29T13:09:41.040Z,27.60
2018-12-29T13:12:10.005Z,26.45
2018-12-29T13:14:38.787Z,33.02
2018-12-29T13:17:07.967Z,30.80
2018-12-29T13:19:36.943Z,28.35
2018-12-29T13:22:06.068Z,27.52
2018-12-29T13:24:35.072Z,32.33
2018-12-29T13:27:03.875Z,33.53
2018-12-29T13:29:32.659Z,37.13
2018-12-29T13:32:01.556Z,34.85
2018-12-29T13:34:30.528Z,30.50
2018-12-29T13:36:59.436Z,30.90
2018-12-29T13:39:28.239Z,29.30
2018-12-29T13:41:57.049Z,31.00
2018-12-29T13:44:25.856Z,30.00
2018-12-29T13:46:54.965Z,29.92
2018-12-29T13:49:23.784Z,31.85
2018-12-29T13:51:52.697Z,32.75
2018-12-29T13:54:21.524Z,29.40
2018-12-29T13:56:50.452Z,30.20
2018-12-29T13:59:19.394Z,31.33
2018-12-29T14:01:48.280Z,27.90
2018-12-29T14:04:17.333Z,30.15
2018-12-29T14:06:46.239Z,26.77
2018-12-29T14:09:15.145Z,26.55
2018-12-29T14:11:43.950Z,27.67
2018-12-29T14:14:12.864Z,26.93
2018-12-29T14:16:41.908Z,28.45
2018-12-29T14:19:10.728Z,26.17
2018-12-29T14:21:39.617Z,25.75
2018-12-29T14:24:08.581Z,26.60
2018-12-29T14:26:37.417Z,25.20
2018-12-29T14:29:06.293Z,24.18
2018-12-29T14:31:35.200Z,25.25
2018-12-29T14:34:04.328Z,25.65
2018-12-29T14:36:33.246Z,24.12
2018-12-29T14:39:02.168Z,23.47
2018-12-29T14:41:31.160Z,25.68
2018-12-29T14:44:00.085Z,24.27
2018-12-29T14:46:29.010Z,28.90
2018-12-29T14:48:57.872Z,27.20
2018-12-29T14:51:26.656Z,19.90
2018-12-29T14:53:55.621Z,18.20
2018-12-29T14:56:24.546Z,22.98
2018-12-29T14:58:53.436Z,19.77
2018-12-29T15:01:22.279Z,23.18
2018-12-29T15:03:51.467Z,21.65
2018-12-29T15:06:20.274Z,18.17
2018-12-29T15:08:49.065Z,20.55
2018-12-29T15:11:19.624Z,19.92
2018-12-29T15:13:48.744Z,19.05
2018-12-29T15:16:17.740Z,16.97
2018-12-29T15:18:46.644Z,24.65
2018-12-29T15:21:15.563Z,23.80
2018-12-29T15:23:44.484Z,21.15
2018-12-29T15:26:13.549Z,16.65
2018-12-29T15:28:42.428Z,16.50
2018-12-29T15:31:11.376Z,16.65
2018-12-29T15:33:40.663Z,18.85
2018-12-29T15:36:16.045Z,18.10
2018-12-29T15:38:40.199Z,18.40
2018-12-29T15:41:09.112Z,18.85
2018-12-29T15:43:38.008Z,18.42
2018-12-29T15:46:06.784Z,19.07
2018-12-29T15:48:35.688Z,20.08
2018-12-29T15:51:04.580Z,19.85
2018-12-29T15:53:33.659Z,19.35
2018-12-29T15:56:02.660Z,23.98
2018-12-29T15:58:31.513Z,23.90
2018-12-29T16:01:00.428Z,24.70
2018-12-29T16:03:29.519Z,19.27
2018-12-29T16:05:58.715Z,19.30
2018-12-29T16:08:27.876Z,17.60
2018-12-29T16:10:56.760Z,18.12
2018-12-29T16:13:25.772Z,16.93
2018-12-29T16:15:55.057Z,23.65
2018-12-29T16:18:24.217Z,26.02
2018-12-29T16:20:55.239Z,23.07
2018-12-29T16:23:26.174Z,26.60
2018-12-29T16:25:57.935Z,21.55
2018-12-29T16:28:30.037Z,24.47
2018-12-29T16:30:59.105Z,19.57
2018-12-29T16:33:28.162Z,18.67
2018-12-29T16:35:57.260Z,19.85
2018-12-29T16:38:26.097Z,17.15
2018-12-29T16:40:57.981Z,14.73
2018-12-29T16:43:26.122Z,16.42
2018-12-29T16:45:54.989Z,17.92
2018-12-29T16:48:23.891Z,18.77
2018-12-29T16:50:53.196Z,17.55
2018-12-29T16:53:28.956Z,15.63
2018-12-29T16:55:52.688Z,21.77
2018-12-29T16:58:21.680Z,19.50
2018-12-29T17:00:51.120Z,15.68
2018-12-29T17:03:19.980Z,15.35
2018-12-29T17:05:48.932Z,15.68
2018-12-29T17:08:17.756Z,13.58
2018-12-29T17:10:47.032Z,15.72
2018-12-29T17:13:15.872Z,16.65
2018-12-29T17:15:44.665Z,15.28
2018-12-29T17:18:13.810Z,14.75
2018-12-29T17:20:43.439Z,15.80
2018-12-29T17:23:12.554Z,15.88
2018-12-29T17:25:41.784Z,21.85
2018-12-29T17:28:10.669Z,20.90
2018-12-29T17:30:39.641Z,14.95
2018-12-29T17:33:09.144Z,14.73
2018-12-29T17:35:38.008Z,22.55
2018-12-29T17:38:06.916Z,16.07
2018-12-29T17:40:35.716Z,15.95
2018-12-29T17:43:04.544Z,17.70
2018-12-29T17:45:33.489Z,13.20
2018-12-29T17:48:02.440Z,14.13
2018-12-29T17:50:31.529Z,63.25
2018-12-29T17:53:00.465Z,24.47
2018-12-29T17:55:29.424Z,14.18
2018-12-29T17:57:59.820Z,13.90
2018-12-29T18:00:30.252Z,15.10
2018-12-29T18:02:59.293Z,16.10
2018-12-29T18:05:28.580Z,15.10
2018-12-29T18:07:57.443Z,16.70
2018-12-29T18:10:26.746Z,15.38
2018-12-29T18:12:55.810Z,16.35
2018-12-29T18:15:24.796Z,19.10
2018-12-29T18:17:53.837Z,18.27
2018-12-29T18:20:22.728Z,21.17
2018-12-29T18:22:51.649Z,22.27
2018-12-29T18:25:20.869Z,20.00
2018-12-29T18:27:50.112Z,20.55
2018-12-29T18:30:19.305Z,19.98
2018-12-29T18:32:48.229Z,19.07
2018-12-29T18:35:19.488Z,21.90
2018-12-29T18:37:48.498Z,22.42
2018-12-29T18:40:17.567Z,22.80
2018-12-29T18:42:46.654Z,25.62
2018-12-29T18:45:15.648Z,20.75
2018-12-29T18:47:44.576Z,22.60
2018-12-29T18:50:13.492Z,23.87
2018-12-29T18:52:42.460Z,25.88
2018-12-29T18:55:11.540Z,23.52
2018-12-29T18:57:40.456Z,28.00
2018-12-29T19:00:09.449Z,23.30
2018-12-29T19:02:38.381Z,25.23
2018-12-29T19:05:07.637Z,23.60
2018-12-29T19:07:36.516Z,22.75
2018-12-29T19:10:05.872Z,23.27
2018-12-29T19:12:34.880Z,25.55
2018-12-29T19:15:04.039Z,27.17
2018-12-29T19:17:33.112Z,28.02
2018-12-29T19:20:02.308Z,26.93
2018-12-29T19:22:31.213Z,30.10
2018-12-29T19:25:00.441Z,30.95
2018-12-29T19:27:29.619Z,29.48
2018-12-29T19:29:58.793Z,32.73
2018-12-29T19:32:28.982Z,31.68
2018-12-29T19:34:58.633Z,31.12
2018-12-29T19:37:27.560Z,30.85
2018-12-29T19:39:56.920Z,31.82
2018-12-29T19:42:26.088Z,33.10
2018-12-29T19:44:54.887Z,28.45
2018-12-29T19:47:24.016Z,42.70
2018-12-29T19:49:54.424Z,18.98
2018-12-29T19:52:23.326Z,12.70
2018-12-29T19:54:52.191Z,12.30
2018-12-29T19:57:21.591Z,11.18
2018-12-29T19:59:50.600Z,12.58
2018-12-29T20:02:19.857Z,12.43
2018-12-29T20:04:49.104Z,11.55
2018-12-29T20:07:18.652Z,10.10
2018-12-29T20:09:47.476Z,11.90
2018-12-29T20:12:16.385Z,11.80
2018-12-29T20:14:45.268Z,11.33
2018-12-29T20:17:14.104Z,12.37
2018-12-29T20:19:43.098Z,11.70
2018-12-29T20:22:12.288Z,12.67
2018-12-29T20:24:41.226Z,11.20
2018-12-29T20:27:10.096Z,11.25
2018-12-29T20:29:38.872Z,9.85
2018-12-29T20:32:08.144Z,12.18
2018-12-29T20:34:36.994Z,13.53
2018-12-29T20:37:05.956Z,11.12
2018-12-29T20:39:34.916Z,11.28
2018-12-29T20:42:03.834Z,10.95
2018-12-29T20:44:32.721Z,12.37
2018-12-29T20:47:01.825Z,11.53
2018-12-29T20:49:30.817Z,11.25
2018-12-29T20:51:59.709Z,12.37
2018-12-29T20:54:28.643Z,12.37
2018-12-29T20:56:57.677Z,12.63
2018-12-29T20:59:26.581Z,11.45
2018-12-29T21:01:55.476Z,11.63
2018-12-29T21:04:24.388Z,12.70
2018-12-29T21:06:53.245Z,11.57
2018-12-29T21:09:22.140Z,10.85
2018-12-29T21:11:50.972Z,10.55
2018-12-29T21:14:19.962Z,11.48
2018-12-29T21:16:48.893Z,10.43
2018-12-29T21:19:17.748Z,11.48
2018-12-29T21:21:46.572Z,10.82
2018-12-29T21:24:15.556Z,11.40
2018-12-29T21:26:45.037Z,12.25
2018-12-29T21:29:13.930Z,12.10
2018-12-29T21:31:42.719Z,11.10
2018-12-29T21:34:11.495Z,14.38
2018-12-29T21:36:40.392Z,10.70
2018-12-29T21:39:09.276Z,10.58
2018-12-29T21:41:38.241Z,10.90
2018-12-29T21:44:07.124Z,11.10
2018-12-29T21:46:36.056Z,11.22
2018-12-29T21:49:04.960Z,10.90
2018-12-29T21:51:33.744Z,9.95
2018-12-29T21:54:02.831Z,12.13
2018-12-29T21:56:31.653Z,11.55
2018-12-29T21:59:00.578Z,12.68
2018-12-29T22:01:29.564Z,13.03
2018-12-29T22:03:58.460Z,12.90
2018-12-29T22:06:27.284Z,11.68
2018-12-29T22:08:56.072Z,12.85
2018-12-29T22:11:24.877Z,13.55
2018-12-29T22:13:53.740Z,11.68
2018-12-29T22:16:22.527Z,12.23
2018-12-29T22:18:51.468Z,11.75
2018-12-29T22:21:20.451Z,14.00
2018-12-29T22:23:49.252Z,13.43
2018-12-29T22:26:18.096Z,13.32
2018-12-29T22:28:46.992Z,13.05
2018-12-29T22:31:16.040Z,13.25
2018-12-29T22:33:44.940Z,12.53
2018-12-29T22:36:13.827Z,13.93
2018-12-29T22:38:42.780Z,11.45
2018-12-29T22:41:11.650Z,13.00
2018-12-29T22:43:40.469Z,11.88
2018-12-29T22:46:12.483Z,13.78
2018-12-29T22:48:41.292Z,14.43
2018-12-29T22:51:10.124Z,13.43
2018-12-29T22:53:39.025Z,13.60
2018-12-29T22:56:07.904Z,13.30
2018-12-29T22:58:36.796Z,15.03
2018-12-29T23:01:06.072Z,14.40
2018-12-29T23:03:35.276Z,13.08
2018-12-29T23:06:05.358Z,14.65
2018-12-29T23:08:34.399Z,12.20
2018-12-29T23:11:03.744Z,13.48
2018-12-29T23:13:32.537Z,14.58
2018-12-29T23:16:01.425Z,14.40
2018-12-29T23:18:30.397Z,12.95
2018-12-29T23:20:59.168Z,13.75
2018-12-29T23:23:28.080Z,13.83
2018-12-29T23:25:57.184Z,15.38
2018-12-29T23:28:26.012Z,15.05
2018-12-29T23:30:55.237Z,15.70
2018-12-29T23:33:24.064Z,14.45
2018-12-29T23:35:53.060Z,16.82
2018-12-29T23:38:21.964Z,14.87
2018-12-29T23:40:50.952Z,14.73
2018-12-29T23:43:19.782Z,13.72
2018-12-29T23:45:48.920Z,14.60
2018-12-29T23:48:17.791Z,15.23
2018-12-29T23:50:46.812Z,13.83
2018-12-29T23:53:15.732Z,13.78
2018-12-29T23:55:44.892Z,15.08
2018-12-29T23:58:13.748Z,15.03
